KFLL/FLL METAR and TAF weather

Enter ICAO airport designator
Station Type Date Time Source
KFLL METAR 2021/07/29 17:32 UTC NOAA

KFLL 291732Z 00000KT 10SM TS FEW035TCB FEW060 SCT150 BKN250 32/24 A3004 RMK TSB32 OCNL LTGICCG SW TS SW MOV N


Station Type Date Time Source
KFLL Decoded METAR 2021/07/29 17:32 UTC NOAA

FORT LAUDERDALE/HOLLYWOOD, FL, United States (KFLL) 26-04N 080-09W 30M
Jul 29, 2021 - 01:32 PM EDT / 2021.07.29 1732 UTC
Wind: Calm:0
Visibility: 10 mile(s):0
Sky conditions: mostly cloudy
Weather: thunder; Cumulonimbus clouds, lightning observed
Temperature: 89 F (32 C)
Heat index: 98.4 F (36.9 C):1
Dew Point: 75 F (24 C)
Relative Humidity: 62%
Pressure (altimeter): 30.04 in. Hg (1017 hPa)
ob: KFLL 291732Z 00000KT 10SM TS FEW035TCB FEW060 SCT150 BKN250 32/24 A3004 RMK TSB32 OCNL LTGICCG SW TS SW MOV N
cycle: 17

Station Type Date Time Source
KFLL TAF 2021/07/29 18:48 UTC NOAA

TAF KFLL 291740Z 2918/3024 13007KT P6SM VCTS SCT030CB BKN050
FM292200 14008KT P6SM VCSH SCT030 BKN250
FM300200 VRB03KT P6SM FEW025 SCT250
FM301700 14009KT P6SM VCSH SCT030

Example: see airport list